sensor_id;sensor_type;location;lat;lon;timestamp;temperature;humidity
56076;DHT22;41951;49.022;12.066;2023-07-20T00:01:35;19.50;99.90
56076;DHT22;41951;49.022;12.066;2023-07-20T00:04:01;19.40;99.90
56076;DHT22;41951;49.022;12.066;2023-07-20T00:06:27;19.30;99.90
56076;DHT22;41951;49.022;12.066;2023-07-20T00:08:53;19.40;99.90
56076;DHT22;41951;49.022;12.066;2023-07-20T00:11:19;19.40;99.90
56076;DHT22;41951;49.022;12.066;2023-07-20T00:13:45;19.30;99.90
56076;DHT22;41951;49.022;12.066;2023-07-20T00:16:11;19.20;99.90
56076;DHT22;41951;49.022;12.066;2023-07-20T00:18:36;19.10;99.90
56076;DHT22;41951;49.022;12.066;2023-07-20T00:21:02;19.20;99.90
56076;DHT22;41951;49.022;12.066;2023-07-20T00:23:27;19.10;99.90
56076;DHT22;41951;49.022;12.066;2023-07-20T00:25:53;19.10;99.90
56076;DHT22;41951;49.022;12.066;2023-07-20T00:28:19;19.00;99.90
56076;DHT22;41951;49.022;12.066;2023-07-20T00:30:45;19.00;99.90
56076;DHT22;41951;49.022;12.066;2023-07-20T00:33:12;19.10;99.90
56076;DHT22;41951;49.022;12.066;2023-07-20T00:35:38;19.00;99.90
56076;DHT22;41951;49.022;12.066;2023-07-20T00:38:04;19.00;99.90
56076;DHT22;41951;49.022;12.066;2023-07-20T00:40:40;19.00;99.90
56076;DHT22;41951;49.022;12.066;2023-07-20T00:43:06;19.10;99.90
56076;DHT22;41951;49.022;12.066;2023-07-20T00:45:33;19.10;99.90
56076;DHT22;41951;49.022;12.066;2023-07-20T00:48:01;19.10;99.90
56076;DHT22;41951;49.022;12.066;2023-07-20T00:50:28;19.10;99.90
56076;DHT22;41951;49.022;12.066;2023-07-20T00:52:55;19.10;99.90
56076;DHT22;41951;49.022;12.066;2023-07-20T00:55:23;19.10;99.90
56076;DHT22;41951;49.022;12.066;2023-07-20T00:57:48;19.10;99.90
56076;DHT22;41951;49.022;12.066;2023-07-20T01:00:15;19.00;99.90
56076;DHT22;41951;49.022;12.066;2023-07-20T01:02:40;18.90;99.90
56076;DHT22;41951;49.022;12.066;2023-07-20T01:05:07;19.00;99.90
56076;DHT22;41951;49.022;12.066;2023-07-20T01:07:39;18.90;99.90
56076;DHT22;41951;49.022;12.066;2023-07-20T01:12:52;19.00;99.90
56076;DHT22;41951;49.022;12.066;2023-07-20T01:15:18;18.90;99.90
56076;DHT22;41951;49.022;12.066;2023-07-20T01:17:44;18.90;99.90
56076;DHT22;41951;49.022;12.066;2023-07-20T01:20:13;18.90;99.90
56076;DHT22;41951;49.022;12.066;2023-07-20T01:28:31;19.00;99.90
56076;DHT22;41951;49.022;12.066;2023-07-20T01:33:46;19.20;99.90
56076;DHT22;41951;49.022;12.066;2023-07-20T01:36:13;19.30;99.90
56076;DHT22;41951;49.022;12.066;2023-07-20T01:38:40;19.20;99.90
56076;DHT22;41951;49.022;12.066;2023-07-20T01:41:06;19.10;99.90
56076;DHT22;41951;49.022;12.066;2023-07-20T01:43:31;19.10;99.90
56076;DHT22;41951;49.022;12.066;2023-07-20T01:45:57;19.10;99.90
56076;DHT22;41951;49.022;12.066;2023-07-20T01:48:23;19.00;99.90
56076;DHT22;41951;49.022;12.066;2023-07-20T01:50:48;19.00;99.90
56076;DHT22;41951;49.022;12.066;2023-07-20T01:53:14;19.00;99.90
56076;DHT22;41951;49.022;12.066;2023-07-20T01:55:39;19.00;99.90
56076;DHT22;41951;49.022;12.066;2023-07-20T01:58:05;19.00;99.90
56076;DHT22;41951;49.022;12.066;2023-07-20T02:00:31;19.00;99.90
56076;DHT22;41951;49.022;12.066;2023-07-20T02:02:57;18.90;99.90
56076;DHT22;41951;49.022;12.066;2023-07-20T02:05:22;18.80;99.90
56076;DHT22;41951;49.022;12.066;2023-07-20T02:07:48;18.70;99.90
56076;DHT22;41951;49.022;12.066;2023-07-20T02:10:13;18.60;99.90
56076;DHT22;41951;49.022;12.066;2023-07-20T02:12:39;18.60;99.90
56076;DHT22;41951;49.022;12.066;2023-07-20T02:15:05;18.50;99.90
56076;DHT22;41951;49.022;12.066;2023-07-20T02:17:30;18.50;99.90
56076;DHT22;41951;49.022;12.066;2023-07-20T02:19:56;18.70;99.90
56076;DHT22;41951;49.022;12.066;2023-07-20T02:22:23;18.70;99.90
56076;DHT22;41951;49.022;12.066;2023-07-20T02:24:49;18.70;99.90
56076;DHT22;41951;49.022;12.066;2023-07-20T02:27:15;18.70;99.90
56076;DHT22;41951;49.022;12.066;2023-07-20T02:29:41;18.60;99.90
56076;DHT22;41951;49.022;12.066;2023-07-20T02:32:07;18.70;99.90
56076;DHT22;41951;49.022;12.066;2023-07-20T02:34:33;18.70;99.90
56076;DHT22;41951;49.022;12.066;2023-07-20T02:37:00;18.70;99.90
56076;DHT22;41951;49.022;12.066;2023-07-20T02:39:27;18.50;99.90
56076;DHT22;41951;49.022;12.066;2023-07-20T02:41:53;18.60;99.90
56076;DHT22;41951;49.022;12.066;2023-07-20T02:44:19;18.50;99.90
56076;DHT22;41951;49.022;12.066;2023-07-20T02:46:45;18.50;99.90
56076;DHT22;41951;49.022;12.066;2023-07-20T02:49:10;18.50;99.90
56076;DHT22;41951;49.022;12.066;2023-07-20T02:51:36;18.40;99.90
56076;DHT22;41951;49.022;12.066;2023-07-20T02:54:02;18.30;99.90
56076;DHT22;41951;49.022;12.066;2023-07-20T02:56:28;18.40;99.90
56076;DHT22;41951;49.022;12.066;2023-07-20T02:58:54;18.40;99.90
56076;DHT22;41951;49.022;12.066;2023-07-20T03:01:19;18.30;99.90
56076;DHT22;41951;49.022;12.066;2023-07-20T03:03:45;18.40;99.90
56076;DHT22;41951;49.022;12.066;2023-07-20T03:06:13;18.50;99.90
56076;DHT22;41951;49.022;12.066;2023-07-20T03:08:40;18.60;99.90
56076;DHT22;41951;49.022;12.066;2023-07-20T03:11:07;18.60;99.90
56076;DHT22;41951;49.022;12.066;2023-07-20T03:13:32;18.60;99.90
56076;DHT22;41951;49.022;12.066;2023-07-20T03:15:58;18.60;99.90
56076;DHT22;41951;49.022;12.066;2023-07-20T03:18:23;18.40;99.90
56076;DHT22;41951;49.022;12.066;2023-07-20T03:20:49;18.50;99.90
56076;DHT22;41951;49.022;12.066;2023-07-20T03:23:14;18.60;99.90
56076;DHT22;41951;49.022;12.066;2023-07-20T03:25:41;18.70;99.90
56076;DHT22;41951;49.022;12.066;2023-07-20T03:28:06;18.80;99.90
56076;DHT22;41951;49.022;12.066;2023-07-20T03:30:33;18.80;99.90
56076;DHT22;41951;49.022;12.066;2023-07-20T03:32:58;18.80;99.90
56076;DHT22;41951;49.022;12.066;2023-07-20T03:35:24;18.80;99.90
56076;DHT22;41951;49.022;12.066;2023-07-20T03:37:49;18.90;99.90
56076;DHT22;41951;49.022;12.066;2023-07-20T03:40:15;18.90;99.90
56076;DHT22;41951;49.022;12.066;2023-07-20T03:42:41;18.80;99.90
56076;DHT22;41951;49.022;12.066;2023-07-20T03:45:07;18.80;99.90
56076;DHT22;41951;49.022;12.066;2023-07-20T03:47:33;18.90;99.90
56076;DHT22;41951;49.022;12.066;2023-07-20T03:49:59;18.90;99.90
56076;DHT22;41951;49.022;12.066;2023-07-20T03:52:24;18.90;99.90
56076;DHT22;41951;49.022;12.066;2023-07-20T03:54:50;19.00;99.90
56076;DHT22;41951;49.022;12.066;2023-07-20T03:57:18;18.90;99.90
56076;DHT22;41951;49.022;12.066;2023-07-20T03:59:47;18.90;99.90
56076;DHT22;41951;49.022;12.066;2023-07-20T04:02:13;18.90;99.90
56076;DHT22;41951;49.022;12.066;2023-07-20T04:04:39;18.90;99.90
56076;DHT22;41951;49.022;12.066;2023-07-20T04:07:04;18.80;99.90
56076;DHT22;41951;49.022;12.066;2023-07-20T04:09:31;18.80;99.90
56076;DHT22;41951;49.022;12.066;2023-07-20T04:11:57;18.80;99.90
56076;DHT22;41951;49.022;12.066;2023-07-20T04:14:23;18.80;99.90
56076;DHT22;41951;49.022;12.066;2023-07-20T04:16:48;18.80;99.90
56076;DHT22;41951;49.022;12.066;2023-07-20T04:19:14;18.80;99.90
56076;DHT22;41951;49.022;12.066;2023-07-20T04:21:40;18.80;99.90
56076;DHT22;41951;49.022;12.066;2023-07-20T04:24:06;18.90;99.90
56076;DHT22;41951;49.022;12.066;2023-07-20T04:26:32;18.90;99.90
56076;DHT22;41951;49.022;12.066;2023-07-20T04:28:57;18.80;99.90
56076;DHT22;41951;49.022;12.066;2023-07-20T04:31:24;18.80;99.90
56076;DHT22;41951;49.022;12.066;2023-07-20T04:33:50;18.90;99.90
56076;DHT22;41951;49.022;12.066;2023-07-20T04:36:16;18.90;99.90
56076;DHT22;41951;49.022;12.066;2023-07-20T04:38:48;19.00;99.90
56076;DHT22;41951;49.022;12.066;2023-07-20T04:41:13;19.10;99.90
56076;DHT22;41951;49.022;12.066;2023-07-20T04:43:43;19.20;99.90
56076;DHT22;41951;49.022;12.066;2023-07-20T04:46:10;19.10;99.90
56076;DHT22;41951;49.022;12.066;2023-07-20T04:48:36;19.00;99.90
56076;DHT22;41951;49.022;12.066;2023-07-20T04:51:02;18.90;99.90
56076;DHT22;41951;49.022;12.066;2023-07-20T04:53:27;19.00;99.90
56076;DHT22;41951;49.022;12.066;2023-07-20T04:55:53;19.00;99.90
56076;DHT22;41951;49.022;12.066;2023-07-20T04:58:20;19.20;99.90
56076;DHT22;41951;49.022;12.066;2023-07-20T05:00:46;19.00;99.90
56076;DHT22;41951;49.022;12.066;2023-07-20T05:03:12;19.00;99.90
56076;DHT22;41951;49.022;12.066;2023-07-20T05:05:37;19.00;99.90
56076;DHT22;41951;49.022;12.066;2023-07-20T05:08:04;18.90;99.90
56076;DHT22;41951;49.022;12.066;2023-07-20T05:10:29;18.80;99.90
56076;DHT22;41951;49.022;12.066;2023-07-20T05:12:55;18.80;99.90
56076;DHT22;41951;49.022;12.066;2023-07-20T05:15:21;18.70;99.90
56076;DHT22;41951;49.022;12.066;2023-07-20T05:17:46;18.80;99.90
56076;DHT22;41951;49.022;12.066;2023-07-20T05:20:14;18.80;99.90
56076;DHT22;41951;49.022;12.066;2023-07-20T05:22:39;18.90;99.90
56076;DHT22;41951;49.022;12.066;2023-07-20T05:25:09;18.90;99.90
56076;DHT22;41951;49.022;12.066;2023-07-20T05:27:38;18.90;99.90
56076;DHT22;41951;49.022;12.066;2023-07-20T05:30:04;19.00;99.90
56076;DHT22;41951;49.022;12.066;2023-07-20T05:32:30;19.00;99.90
56076;DHT22;41951;49.022;12.066;2023-07-20T05:34:56;19.10;99.90
56076;DHT22;41951;49.022;12.066;2023-07-20T05:37:22;19.10;99.90
56076;DHT22;41951;49.022;12.066;2023-07-20T05:39:47;19.10;99.90
56076;DHT22;41951;49.022;12.066;2023-07-20T05:42:13;19.10;99.90
56076;DHT22;41951;49.022;12.066;2023-07-20T05:44:40;19.10;99.90
56076;DHT22;41951;49.022;12.066;2023-07-20T05:47:06;19.10;99.90
56076;DHT22;41951;49.022;12.066;2023-07-20T05:49:31;19.00;99.90
56076;DHT22;41951;49.022;12.066;2023-07-20T05:51:57;19.00;99.90
56076;DHT22;41951;49.022;12.066;2023-07-20T05:54:25;19.20;99.90
56076;DHT22;41951;49.022;12.066;2023-07-20T05:56:51;19.10;99.90
56076;DHT22;41951;49.022;12.066;2023-07-20T05:59:17;19.00;99.90
56076;DHT22;41951;49.022;12.066;2023-07-20T06:01:43;19.10;99.90
56076;DHT22;41951;49.022;12.066;2023-07-20T06:04:09;19.10;99.90
56076;DHT22;41951;49.022;12.066;2023-07-20T06:06:34;19.10;99.90
56076;DHT22;41951;49.022;12.066;2023-07-20T06:09:00;19.10;99.90
56076;DHT22;41951;49.022;12.066;2023-07-20T06:11:29;19.20;99.90
56076;DHT22;41951;49.022;12.066;2023-07-20T06:13:56;19.30;99.90
56076;DHT22;41951;49.022;12.066;2023-07-20T06:16:22;19.30;99.90
56076;DHT22;41951;49.022;12.066;2023-07-20T06:18:47;19.20;99.90
56076;DHT22;41951;49.022;12.066;2023-07-20T06:21:13;19.30;99.90
56076;DHT22;41951;49.022;12.066;2023-07-20T06:23:38;19.20;99.90
56076;DHT22;41951;49.022;12.066;2023-07-20T06:26:06;19.20;99.90
56076;DHT22;41951;49.022;12.066;2023-07-20T06:28:31;19.10;99.90
56076;DHT22;41951;49.022;12.066;2023-07-20T06:31:01;19.00;99.90
56076;DHT22;41951;49.022;12.066;2023-07-20T06:33:27;19.00;99.90
56076;DHT22;41951;49.022;12.066;2023-07-20T06:35:52;19.20;99.90
56076;DHT22;41951;49.022;12.066;2023-07-20T06:38:18;19.30;99.90
56076;DHT22;41951;49.022;12.066;2023-07-20T06:40:46;19.40;99.90
56076;DHT22;41951;49.022;12.066;2023-07-20T06:43:12;19.30;99.90
56076;DHT22;41951;49.022;12.066;2023-07-20T06:45:37;19.20;99.90
56076;DHT22;41951;49.022;12.066;2023-07-20T06:48:03;19.30;99.90
56076;DHT22;41951;49.022;12.066;2023-07-20T06:50:29;19.50;99.90
56076;DHT22;41951;49.022;12.066;2023-07-20T06:52:55;19.50;99.90
56076;DHT22;41951;49.022;12.066;2023-07-20T06:55:20;19.60;99.90
56076;DHT22;41951;49.022;12.066;2023-07-20T06:57:46;19.60;99.90
56076;DHT22;41951;49.022;12.066;2023-07-20T07:00:12;19.50;99.90
56076;DHT22;41951;49.022;12.066;2023-07-20T07:02:38;19.60;99.90
56076;DHT22;41951;49.022;12.066;2023-07-20T07:05:04;19.80;99.90
56076;DHT22;41951;49.022;12.066;2023-07-20T07:07:30;20.00;99.90
56076;DHT22;41951;49.022;12.066;2023-07-20T07:09:56;20.00;99.90
56076;DHT22;41951;49.022;12.066;2023-07-20T07:12:21;20.00;99.90
56076;DHT22;41951;49.022;12.066;2023-07-20T07:14:47;20.10;99.90
56076;DHT22;41951;49.022;12.066;2023-07-20T07:17:13;20.20;99.90
56076;DHT22;41951;49.022;12.066;2023-07-20T07:19:38;20.30;99.90
56076;DHT22;41951;49.022;12.066;2023-07-20T07:22:04;20.20;99.90
56076;DHT22;41951;49.022;12.066;2023-07-20T07:24:30;20.20;99.90
56076;DHT22;41951;49.022;12.066;2023-07-20T07:27:02;20.40;99.90
56076;DHT22;41951;49.022;12.066;2023-07-20T07:29:27;20.40;99.90
56076;DHT22;41951;49.022;12.066;2023-07-20T07:31:53;20.50;99.90
56076;DHT22;41951;49.022;12.066;2023-07-20T07:34:19;20.50;99.90
56076;DHT22;41951;49.022;12.066;2023-07-20T07:36:44;20.50;99.90
56076;DHT22;41951;49.022;12.066;2023-07-20T07:39:10;20.50;99.90
56076;DHT22;41951;49.022;12.066;2023-07-20T07:41:36;20.40;99.90
56076;DHT22;41951;49.022;12.066;2023-07-20T07:44:02;20.50;99.90
56076;DHT22;41951;49.022;12.066;2023-07-20T07:46:27;20.50;99.90
56076;DHT22;41951;49.022;12.066;2023-07-20T07:48:53;20.60;99.90
56076;DHT22;41951;49.022;12.066;2023-07-20T07:51:19;20.70;99.90
56076;DHT22;41951;49.022;12.066;2023-07-20T07:53:46;20.80;99.90
56076;DHT22;41951;49.022;12.066;2023-07-20T07:56:11;21.00;99.90
56076;DHT22;41951;49.022;12.066;2023-07-20T07:58:37;21.20;99.90
56076;DHT22;41951;49.022;12.066;2023-07-20T08:01:03;21.30;99.90
56076;DHT22;41951;49.022;12.066;2023-07-20T08:03:29;21.20;99.90
56076;DHT22;41951;49.022;12.066;2023-07-20T08:05:55;21.20;99.90
56076;DHT22;41951;49.022;12.066;2023-07-20T08:08:21;21.30;99.90
56076;DHT22;41951;49.022;12.066;2023-07-20T08:10:47;21.30;99.90
56076;DHT22;41951;49.022;12.066;2023-07-20T08:13:13;21.30;99.90
56076;DHT22;41951;49.022;12.066;2023-07-20T08:15:39;21.30;99.90
56076;DHT22;41951;49.022;12.066;2023-07-20T08:18:04;21.20;99.90
56076;DHT22;41951;49.022;12.066;2023-07-20T08:20:31;21.20;99.90
56076;DHT22;41951;49.022;12.066;2023-07-20T08:22:57;21.40;99.90
56076;DHT22;41951;49.022;12.066;2023-07-20T08:25:25;21.60;99.90
56076;DHT22;41951;49.022;12.066;2023-07-20T08:27:50;22.20;99.90
56076;DHT22;41951;49.022;12.066;2023-07-20T08:30:16;22.00;99.90
56076;DHT22;41951;49.022;12.066;2023-07-20T08:32:42;22.10;99.90
56076;DHT22;41951;49.022;12.066;2023-07-20T08:35:08;22.10;99.90
56076;DHT22;41951;49.022;12.066;2023-07-20T08:37:34;22.10;99.90
56076;DHT22;41951;49.022;12.066;2023-07-20T08:40:00;21.90;99.90
56076;DHT22;41951;49.022;12.066;2023-07-20T08:42:27;21.80;99.90
56076;DHT22;41951;49.022;12.066;2023-07-20T08:44:53;21.80;99.90
56076;DHT22;41951;49.022;12.066;2023-07-20T08:47:20;21.70;99.90
56076;DHT22;41951;49.022;12.066;2023-07-20T08:49:49;21.70;99.90
56076;DHT22;41951;49.022;12.066;2023-07-20T08:52:14;21.90;99.90
56076;DHT22;41951;49.022;12.066;2023-07-20T08:54:40;22.20;99.90
56076;DHT22;41951;49.022;12.066;2023-07-20T08:57:06;22.20;99.90
56076;DHT22;41951;49.022;12.066;2023-07-20T08:59:35;22.00;99.90
56076;DHT22;41951;49.022;12.066;2023-07-20T09:02:02;21.90;99.90
56076;DHT22;41951;49.022;12.066;2023-07-20T09:04:29;21.90;99.90
56076;DHT22;41951;49.022;12.066;2023-07-20T09:06:56;22.10;99.90
56076;DHT22;41951;49.022;12.066;2023-07-20T09:09:22;22.00;99.90
56076;DHT22;41951;49.022;12.066;2023-07-20T09:11:49;21.90;99.90
56076;DHT22;41951;49.022;12.066;2023-07-20T09:14:14;21.90;99.90
56076;DHT22;41951;49.022;12.066;2023-07-20T09:16:53;22.00;99.50
56076;DHT22;41951;49.022;12.066;2023-07-20T09:19:20;22.10;98.00
56076;DHT22;41951;49.022;12.066;2023-07-20T09:21:50;22.20;98.30
56076;DHT22;41951;49.022;12.066;2023-07-20T09:24:18;22.40;98.10
56076;DHT22;41951;49.022;12.066;2023-07-20T09:26:46;22.40;98.20
56076;DHT22;41951;49.022;12.066;2023-07-20T09:29:14;22.50;98.20
56076;DHT22;41951;49.022;12.066;2023-07-20T09:31:40;22.70;97.90
56076;DHT22;41951;49.022;12.066;2023-07-20T09:34:06;22.90;97.40
56076;DHT22;41951;49.022;12.066;2023-07-20T09:36:36;23.10;97.00
56076;DHT22;41951;49.022;12.066;2023-07-20T09:39:03;23.30;95.90
56076;DHT22;41951;49.022;12.066;2023-07-20T09:41:29;23.30;95.00
56076;DHT22;41951;49.022;12.066;2023-07-20T09:43:55;23.10;95.20
56076;DHT22;41951;49.022;12.066;2023-07-20T09:46:24;23.00;94.60
56076;DHT22;41951;49.022;12.066;2023-07-20T09:48:53;23.10;94.30
56076;DHT22;41951;49.022;12.066;2023-07-20T09:51:21;23.20;94.20
56076;DHT22;41951;49.022;12.066;2023-07-20T09:53:48;23.10;94.00
56076;DHT22;41951;49.022;12.066;2023-07-20T09:56:16;23.30;94.00
56076;DHT22;41951;49.022;12.066;2023-07-20T09:58:44;23.40;93.80
56076;DHT22;41951;49.022;12.066;2023-07-20T10:01:11;23.40;93.50
56076;DHT22;41951;49.022;12.066;2023-07-20T10:03:39;23.10;93.50
56076;DHT22;41951;49.022;12.066;2023-07-20T10:06:08;22.90;93.50
56076;DHT22;41951;49.022;12.066;2023-07-20T10:08:39;22.90;93.70
56076;DHT22;41951;49.022;12.066;2023-07-20T10:11:05;23.10;93.60
56076;DHT22;41951;49.022;12.066;2023-07-20T10:13:37;23.20;93.20
56076;DHT22;41951;49.022;12.066;2023-07-20T10:16:10;23.30;92.70
56076;DHT22;41951;49.022;12.066;2023-07-20T10:18:50;23.50;92.40
56076;DHT22;41951;49.022;12.066;2023-07-20T10:21:17;23.70;92.30
56076;DHT22;41951;49.022;12.066;2023-07-20T10:23:45;23.80;92.40
56076;DHT22;41951;49.022;12.066;2023-07-20T10:26:11;23.70;91.80
56076;DHT22;41951;49.022;12.066;2023-07-20T10:28:38;23.80;91.80
56076;DHT22;41951;49.022;12.066;2023-07-20T10:31:09;23.80;91.50
56076;DHT22;41951;49.022;12.066;2023-07-20T10:33:37;24.00;91.40
56076;DHT22;41951;49.022;12.066;2023-07-20T10:36:04;23.90;88.40
56076;DHT22;41951;49.022;12.066;2023-07-20T10:41:34;24.00;86.50
56076;DHT22;41951;49.022;12.066;2023-07-20T10:44:04;24.10;84.90
56076;DHT22;41951;49.022;12.066;2023-07-20T10:46:49;24.20;83.00
56076;DHT22;41951;49.022;12.066;2023-07-20T10:49:15;24.10;84.60
56076;DHT22;41951;49.022;12.066;2023-07-20T10:51:45;24.00;85.40
56076;DHT22;41951;49.022;12.066;2023-07-20T10:56:44;24.00;86.40
56076;DHT22;41951;49.022;12.066;2023-07-20T11:01:56;23.70;84.90
56076;DHT22;41951;49.022;12.066;2023-07-20T11:04:45;23.70;85.30
56076;DHT22;41951;49.022;12.066;2023-07-20T11:07:15;23.70;84.40
56076;DHT22;41951;49.022;12.066;2023-07-20T11:09:42;23.90;84.90
56076;DHT22;41951;49.022;12.066;2023-07-20T11:14:53;24.30;84.40
56076;DHT22;41951;49.022;12.066;2023-07-20T11:17:20;24.50;83.10
56076;DHT22;41951;49.022;12.066;2023-07-20T11:19:55;24.60;82.70
56076;DHT22;41951;49.022;12.066;2023-07-20T11:22:21;24.20;83.30
56076;DHT22;41951;49.022;12.066;2023-07-20T11:24:47;23.90;84.10
56076;DHT22;41951;49.022;12.066;2023-07-20T11:27:14;23.60;84.80
56076;DHT22;41951;49.022;12.066;2023-07-20T11:29:40;23.70;85.10
56076;DHT22;41951;49.022;12.066;2023-07-20T11:32:06;23.90;84.80
56076;DHT22;41951;49.022;12.066;2023-07-20T11:34:34;24.00;84.20
56076;DHT22;41951;49.022;12.066;2023-07-20T11:37:00;24.20;83.90
56076;DHT22;41951;49.022;12.066;2023-07-20T11:39:26;24.40;83.70
56076;DHT22;41951;49.022;12.066;2023-07-20T11:41:54;24.50;82.90
56076;DHT22;41951;49.022;12.066;2023-07-20T11:44:22;24.70;82.30
56076;DHT22;41951;49.022;12.066;2023-07-20T11:47:07;24.60;81.90
56076;DHT22;41951;49.022;12.066;2023-07-20T11:49:38;24.30;81.20
56076;DHT22;41951;49.022;12.066;2023-07-20T11:52:15;24.20;82.70
56076;DHT22;41951;49.022;12.066;2023-07-20T11:54:42;24.00;82.90
56076;DHT22;41951;49.022;12.066;2023-07-20T11:57:19;23.80;82.10
56076;DHT22;41951;49.022;12.066;2023-07-20T12:00:00;23.70;83.50
56076;DHT22;41951;49.022;12.066;2023-07-20T12:02:27;23.90;82.60
56076;DHT22;41951;49.022;12.066;2023-07-20T12:04:54;24.20;82.60
56076;DHT22;41951;49.022;12.066;2023-07-20T12:07:21;24.50;81.60
56076;DHT22;41951;49.022;12.066;2023-07-20T12:10:10;24.80;81.70
56076;DHT22;41951;49.022;12.066;2023-07-20T12:12:41;25.10;80.00
56076;DHT22;41951;49.022;12.066;2023-07-20T12:15:24;25.30;78.20
56076;DHT22;41951;49.022;12.066;2023-07-20T12:17:51;25.00;74.10
56076;DHT22;41951;49.022;12.066;2023-07-20T12:22:59;24.90;77.60
56076;DHT22;41951;49.022;12.066;2023-07-20T12:25:33;24.90;77.40
56076;DHT22;41951;49.022;12.066;2023-07-20T12:28:01;24.80;78.00
56076;DHT22;41951;49.022;12.066;2023-07-20T12:30:28;24.80;78.20
56076;DHT22;41951;49.022;12.066;2023-07-20T12:32:54;25.10;78.40
56076;DHT22;41951;49.022;12.066;2023-07-20T12:35:19;25.40;77.90
56076;DHT22;41951;49.022;12.066;2023-07-20T12:37:45;25.50;77.60
56076;DHT22;41951;49.022;12.066;2023-07-20T12:40:14;25.90;77.30
56076;DHT22;41951;49.022;12.066;2023-07-20T12:42:39;26.00;76.30
56076;DHT22;41951;49.022;12.066;2023-07-20T12:45:06;26.00;75.60
56076;DHT22;41951;49.022;12.066;2023-07-20T12:47:32;25.70;74.90
56076;DHT22;41951;49.022;12.066;2023-07-20T12:49:57;25.40;75.00
56076;DHT22;41951;49.022;12.066;2023-07-20T12:52:23;25.30;75.80
56076;DHT22;41951;49.022;12.066;2023-07-20T12:54:48;25.40;76.20
56076;DHT22;41951;49.022;12.066;2023-07-20T12:57:14;25.60;76.30
56076;DHT22;41951;49.022;12.066;2023-07-20T12:59:39;26.00;76.50
56076;DHT22;41951;49.022;12.066;2023-07-20T13:02:05;26.20;74.20
56076;DHT22;41951;49.022;12.066;2023-07-20T13:04:31;25.90;74.20
56076;DHT22;41951;49.022;12.066;2023-07-20T13:06:57;26.00;74.30
56076;DHT22;41951;49.022;12.066;2023-07-20T13:09:24;26.30;73.30
56076;DHT22;41951;49.022;12.066;2023-07-20T13:11:50;26.60;72.80
56076;DHT22;41951;49.022;12.066;2023-07-20T13:14:16;26.80;71.40
56076;DHT22;41951;49.022;12.066;2023-07-20T13:16:42;26.90;70.90
56076;DHT22;41951;49.022;12.066;2023-07-20T13:19:08;26.80;70.10
56076;DHT22;41951;49.022;12.066;2023-07-20T13:21:33;26.80;69.40
56076;DHT22;41951;49.022;12.066;2023-07-20T13:23:59;27.10;69.40
56076;DHT22;41951;49.022;12.066;2023-07-20T13:26:25;27.30;69.00
56076;DHT22;41951;49.022;12.066;2023-07-20T13:28:50;27.30;67.70
56076;DHT22;41951;49.022;12.066;2023-07-20T13:31:16;27.00;68.10
56076;DHT22;41951;49.022;12.066;2023-07-20T13:33:43;26.90;67.70
56076;DHT22;41951;49.022;12.066;2023-07-20T13:36:09;26.40;66.70
56076;DHT22;41951;49.022;12.066;2023-07-20T13:38:34;26.40;67.40
56076;DHT22;41951;49.022;12.066;2023-07-20T13:41:00;26.40;66.30
56076;DHT22;41951;49.022;12.066;2023-07-20T13:43:25;26.80;67.50
56076;DHT22;41951;49.022;12.066;2023-07-20T13:45:51;27.00;67.10
56076;DHT22;41951;49.022;12.066;2023-07-20T13:48:17;27.00;67.00
56076;DHT22;41951;49.022;12.066;2023-07-20T13:50:45;27.20;66.00
56076;DHT22;41951;49.022;12.066;2023-07-20T13:53:11;27.20;65.20
56076;DHT22;41951;49.022;12.066;2023-07-20T13:55:37;27.50;65.60
56076;DHT22;41951;49.022;12.066;2023-07-20T13:58:03;27.80;65.30
56076;DHT22;41951;49.022;12.066;2023-07-20T14:00:30;28.00;65.10
56076;DHT22;41951;49.022;12.066;2023-07-20T14:02:58;28.10;65.10
56076;DHT22;41951;49.022;12.066;2023-07-20T14:05:24;28.30;64.50
56076;DHT22;41951;49.022;12.066;2023-07-20T14:07:50;28.40;63.50
56076;DHT22;41951;49.022;12.066;2023-07-20T14:10:16;28.10;63.70
56076;DHT22;41951;49.022;12.066;2023-07-20T14:12:42;27.80;62.20
56076;DHT22;41951;49.022;12.066;2023-07-20T14:15:09;27.80;63.00
56076;DHT22;41951;49.022;12.066;2023-07-20T14:17:35;28.10;63.30
56076;DHT22;41951;49.022;12.066;2023-07-20T14:20:00;28.30;63.20
56076;DHT22;41951;49.022;12.066;2023-07-20T14:22:26;28.30;62.50
56076;DHT22;41951;49.022;12.066;2023-07-20T14:24:51;28.70;62.50
56076;DHT22;41951;49.022;12.066;2023-07-20T14:27:17;29.10;62.60
56076;DHT22;41951;49.022;12.066;2023-07-20T14:29:42;29.40;62.20
56076;DHT22;41951;49.022;12.066;2023-07-20T14:32:08;29.70;62.00
56076;DHT22;41951;49.022;12.066;2023-07-20T14:34:34;30.00;61.40
56076;DHT22;41951;49.022;12.066;2023-07-20T14:37:00;30.10;60.80
56076;DHT22;41951;49.022;12.066;2023-07-20T14:39:26;30.10;59.20
56076;DHT22;41951;49.022;12.066;2023-07-20T14:41:51;29.70;60.40
56076;DHT22;41951;49.022;12.066;2023-07-20T14:44:17;29.70;60.50
56076;DHT22;41951;49.022;12.066;2023-07-20T14:46:43;29.80;60.60
56076;DHT22;41951;49.022;12.066;2023-07-20T14:49:08;29.90;60.70
56076;DHT22;41951;49.022;12.066;2023-07-20T14:51:36;30.10;60.40
56076;DHT22;41951;49.022;12.066;2023-07-20T14:54:08;30.60;60.30
56076;DHT22;41951;49.022;12.066;2023-07-20T14:56:33;30.70;59.70
56076;DHT22;41951;49.022;12.066;2023-07-20T14:58:59;30.60;59.20
56076;DHT22;41951;49.022;12.066;2023-07-20T15:01:26;30.70;59.20
56076;DHT22;41951;49.022;12.066;2023-07-20T15:03:51;30.90;58.70
56076;DHT22;41951;49.022;12.066;2023-07-20T15:06:19;31.00;58.60
56076;DHT22;41951;49.022;12.066;2023-07-20T15:08:45;31.10;57.90
56076;DHT22;41951;49.022;12.066;2023-07-20T15:11:10;31.00;57.40
56076;DHT22;41951;49.022;12.066;2023-07-20T15:13:36;30.70;57.20
56076;DHT22;41951;49.022;12.066;2023-07-20T15:16:01;30.10;57.20
56076;DHT22;41951;49.022;12.066;2023-07-20T15:18:27;29.80;57.70
56076;DHT22;41951;49.022;12.066;2023-07-20T15:20:53;29.80;57.70
56076;DHT22;41951;49.022;12.066;2023-07-20T15:23:21;29.90;57.90
56076;DHT22;41951;49.022;12.066;2023-07-20T15:25:47;30.00;57.30
56076;DHT22;41951;49.022;12.066;2023-07-20T15:28:12;29.90;57.70
56076;DHT22;41951;49.022;12.066;2023-07-20T15:30:38;29.50;58.30
56076;DHT22;41951;49.022;12.066;2023-07-20T15:33:03;29.60;58.50
56076;DHT22;41951;49.022;12.066;2023-07-20T15:35:29;29.80;59.10
56076;DHT22;41951;49.022;12.066;2023-07-20T15:37:54;30.20;58.90